createdAt,value
2018-03-27T00:01:00.716Z,20.90
2018-03-27T00:03:28.337Z,21.47
2018-03-27T00:05:56.040Z,19.33
2018-03-27T00:08:23.710Z,21.63
2018-03-27T00:10:51.347Z,21.03
2018-03-27T00:13:18.974Z,21.37
2018-03-27T00:15:47.630Z,24.77
2018-03-27T00:18:15.253Z,20.20
2018-03-27T00:20:42.868Z,23.07
2018-03-27T00:23:10.556Z,25.90
2018-03-27T00:25:38.181Z,26.30
2018-03-27T00:28:17.614Z,29.90
2018-03-27T00:30:56.824Z,26.93
2018-03-27T00:33:36.271Z,20.17
2018-03-27T00:36:15.651Z,18.20
2018-03-27T00:38:54.945Z,22.20
2018-03-27T00:44:32.526Z,20.10
2018-03-27T00:47:00.166Z,20.80
2018-03-27T00:49:27.742Z,24.07
2018-03-27T00:51:55.383Z,21.17
2018-03-27T00:54:23.030Z,18.90
2018-03-27T00:56:50.613Z,22.40
2018-03-27T00:59:18.733Z,22.77
2018-03-27T01:01:47.430Z,23.70
2018-03-27T01:04:15.009Z,28.93
2018-03-27T01:06:42.641Z,23.03
2018-03-27T01:09:10.252Z,21.00
2018-03-27T01:11:37.844Z,20.23
2018-03-27T01:14:05.497Z,22.40
2018-03-27T01:16:33.083Z,20.10
2018-03-27T01:19:00.678Z,19.17
2018-03-27T01:21:29.417Z,21.03
2018-03-27T01:23:57.011Z,25.93
2018-03-27T01:26:24.611Z,25.97
2018-03-27T01:28:52.246Z,29.13
2018-03-27T01:31:19.829Z,26.27
2018-03-27T01:33:47.415Z,27.33
2018-03-27T01:36:15.047Z,31.27
2018-03-27T01:38:42.641Z,28.60
2018-03-27T01:41:10.214Z,28.67
2018-03-27T01:43:37.841Z,26.20
2018-03-27T01:46:05.500Z,26.40
2018-03-27T01:48:33.087Z,20.67
2018-03-27T01:51:00.726Z,25.90
2018-03-27T01:53:28.324Z,23.17
2018-03-27T01:55:55.922Z,19.00
2018-03-27T01:58:23.548Z,25.73
2018-03-27T02:00:51.164Z,22.90
2018-03-27T02:03:18.768Z,26.77
2018-03-27T02:05:46.473Z,21.80
2018-03-27T02:08:14.064Z,18.53
2018-03-27T02:10:41.099Z,22.23
2018-03-27T02:13:14.334Z,25.90
2018-03-27T02:15:47.278Z,26.63
2018-03-27T02:18:20.380Z,24.70
2018-03-27T02:20:53.451Z,29.30
2018-03-27T02:23:22.155Z,27.47
2018-03-27T02:25:49.743Z,29.73
2018-03-27T02:28:17.328Z,30.63
2018-03-27T02:30:44.980Z,30.23
2018-03-27T02:33:12.570Z,24.07
2018-03-27T02:35:40.162Z,26.47
2018-03-27T02:38:08.046Z,28.77
2018-03-27T02:40:35.693Z,27.40
2018-03-27T02:43:03.295Z,16.37
2018-03-27T02:45:31.004Z,18.13
2018-03-27T02:47:58.672Z,18.20
2018-03-27T02:50:26.631Z,18.17
2018-03-27T02:52:54.264Z,18.60
2018-03-27T02:55:21.919Z,16.80
2018-03-27T02:57:49.531Z,14.63
2018-03-27T03:00:17.275Z,20.07
2018-03-27T03:02:44.863Z,19.77
2018-03-27T03:05:12.448Z,21.47
2018-03-27T03:07:40.088Z,16.10
2018-03-27T03:10:08.639Z,18.03
2018-03-27T03:12:36.216Z,18.63
2018-03-27T03:15:03.905Z,15.33
2018-03-27T03:17:31.537Z,15.30
2018-03-27T03:19:59.107Z,16.37
2018-03-27T03:22:26.733Z,15.70
2018-03-27T03:24:54.317Z,19.53
2018-03-27T03:27:21.889Z,16.13
2018-03-27T03:29:49.522Z,15.60
2018-03-27T03:32:17.093Z,16.70
2018-03-27T03:34:44.698Z,19.97
2018-03-27T03:37:12.529Z,14.83
2018-03-27T03:39:40.164Z,19.73
2018-03-27T03:42:07.749Z,16.93
2018-03-27T03:44:35.441Z,18.40
2018-03-27T03:47:03.037Z,16.07
2018-03-27T03:49:30.700Z,20.93
2018-03-27T03:51:58.329Z,18.87
2018-03-27T03:54:25.908Z,17.47
2018-03-27T03:56:53.485Z,14.10
2018-03-27T03:59:21.113Z,15.23
2018-03-27T04:01:49.146Z,18.53
2018-03-27T04:04:16.722Z,16.47
2018-03-27T04:06:44.417Z,15.90
2018-03-27T04:09:11.993Z,13.03
2018-03-27T04:11:39.571Z,19.93
2018-03-27T04:14:07.469Z,18.23
2018-03-27T04:16:35.047Z,26.10
2018-03-27T04:19:02.637Z,33.10
2018-03-27T04:21:30.272Z,27.30
2018-03-27T04:23:57.849Z,27.20
2018-03-27T04:26:25.432Z,22.03
2018-03-27T04:28:53.077Z,26.70
2018-03-27T04:31:20.655Z,23.97
2018-03-27T04:33:48.252Z,27.33
2018-03-27T04:36:15.889Z,36.03
2018-03-27T04:38:43.541Z,27.70
2018-03-27T04:41:11.142Z,32.53
2018-03-27T04:43:38.831Z,28.43
2018-03-27T04:46:06.407Z,23.33
2018-03-27T04:48:34.046Z,27.33
2018-03-27T04:51:02.345Z,28.10
2018-03-27T04:53:29.984Z,29.00
2018-03-27T04:55:57.567Z,29.47
2018-03-27T04:58:25.298Z,27.83
2018-03-27T05:00:52.900Z,32.47
2018-03-27T05:03:20.479Z,29.07
2018-03-27T05:05:48.179Z,27.83
2018-03-27T05:08:15.817Z,33.70
2018-03-27T05:10:44.458Z,35.30
2018-03-27T05:13:12.108Z,29.20
2018-03-27T05:15:39.697Z,32.43
2018-03-27T05:18:07.290Z,29.17
2018-03-27T05:20:34.941Z,26.40
2018-03-27T05:23:02.592Z,26.13
2018-03-27T05:25:30.219Z,33.03
2018-03-27T05:27:58.080Z,26.50
2018-03-27T05:30:25.665Z,32.87
2018-03-27T05:32:53.327Z,42.77
2018-03-27T05:35:20.933Z,34.33
2018-03-27T05:37:48.528Z,33.40
2018-03-27T05:40:16.119Z,36.93
2018-03-27T05:42:43.755Z,33.10
2018-03-27T05:45:11.684Z,33.43
2018-03-27T05:47:39.272Z,36.10
2018-03-27T05:50:06.921Z,39.73
2018-03-27T05:52:34.669Z,38.20
2018-03-27T05:55:02.348Z,33.40
2018-03-27T05:57:30.080Z,37.17
2018-03-27T05:59:57.701Z,34.70
2018-03-27T06:02:25.349Z,36.00
2018-03-27T06:04:53.245Z,38.07
2018-03-27T06:07:20.849Z,43.33
2018-03-27T06:09:48.521Z,42.60
2018-03-27T06:12:16.178Z,47.73
2018-03-27T06:14:43.838Z,46.07
2018-03-27T06:17:11.483Z,30.07
2018-03-27T06:19:39.115Z,31.87
2018-03-27T06:22:06.708Z,34.50
2018-03-27T06:24:34.375Z,47.80
2018-03-27T06:27:02.127Z,39.80
2018-03-27T06:29:29.708Z,39.63
2018-03-27T06:31:57.320Z,33.73
2018-03-27T06:34:24.974Z,29.27
2018-03-27T06:36:52.565Z,26.70
2018-03-27T06:39:20.192Z,34.73
2018-03-27T06:41:47.958Z,37.73
2018-03-27T06:44:15.602Z,31.97
2018-03-27T06:46:43.196Z,28.73
2018-03-27T06:49:10.878Z,30.87
2018-03-27T06:51:39.669Z,36.83
2018-03-27T06:54:08.897Z,30.03
2018-03-27T06:56:36.565Z,27.97
2018-03-27T06:59:04.278Z,23.83
2018-03-27T07:01:31.852Z,26.93
2018-03-27T07:03:59.541Z,27.50
2018-03-27T07:06:27.161Z,29.97
2018-03-27T07:08:54.836Z,25.77
2018-03-27T07:11:22.864Z,24.50
2018-03-27T07:13:50.831Z,28.97
2018-03-27T07:16:18.429Z,27.23
2018-03-27T07:18:46.060Z,28.43
2018-03-27T07:21:13.737Z,30.47
2018-03-27T07:23:41.338Z,25.73
2018-03-27T07:26:09.014Z,26.23
2018-03-27T07:28:36.685Z,30.53
2018-03-27T07:31:04.310Z,23.67
2018-03-27T07:33:32.413Z,25.30
2018-03-27T07:36:00.017Z,24.80
2018-03-27T07:38:27.618Z,27.97
2018-03-27T07:40:55.276Z,28.60
2018-03-27T07:43:33.513Z,29.53
2018-03-27T07:46:02.441Z,26.40
2018-03-27T07:48:36.785Z,30.33
2018-03-27T07:51:04.997Z,30.97
2018-03-27T07:53:32.598Z,29.00
2018-03-27T07:56:01.423Z,28.97
2018-03-27T07:58:29.094Z,29.00
2018-03-27T08:00:56.689Z,29.80
2018-03-27T08:03:24.348Z,32.30
2018-03-27T08:05:52.022Z,37.63
2018-03-27T08:08:19.705Z,34.50
2018-03-27T08:10:47.300Z,41.33
2018-03-27T08:13:15.226Z,38.50
2018-03-27T08:15:42.825Z,52.90
2018-03-27T08:18:10.420Z,48.77
2018-03-27T08:20:38.060Z,50.07
2018-03-27T08:23:05.648Z,44.13
2018-03-27T08:25:33.280Z,39.80
2018-03-27T08:28:00.918Z,41.10
2018-03-27T08:30:28.534Z,35.80
2018-03-27T08:32:56.135Z,32.87
2018-03-27T08:35:23.856Z,28.07
2018-03-27T08:37:51.448Z,28.80
2018-03-27T08:40:19.054Z,27.53
2018-03-27T08:42:46.696Z,25.30
2018-03-27T08:45:14.292Z,30.13
2018-03-27T08:47:41.889Z,25.90
2018-03-27T08:50:09.780Z,26.60
2018-03-27T08:52:37.377Z,30.17
2018-03-27T08:55:05.060Z,26.23
2018-03-27T08:57:32.860Z,30.20
2018-03-27T09:00:00.469Z,24.30
2018-03-27T09:02:28.059Z,23.70
2018-03-27T09:04:55.702Z,28.20
2018-03-27T09:07:23.279Z,27.80
2018-03-27T09:09:50.868Z,26.83
2018-03-27T09:12:18.558Z,29.70
2018-03-27T09:14:46.154Z,29.23
2018-03-27T09:17:13.746Z,30.27
2018-03-27T09:19:41.392Z,27.37
2018-03-27T09:22:09.012Z,30.07
2018-03-27T09:24:36.658Z,28.40
2018-03-27T09:27:04.309Z,23.93
2018-03-27T09:29:31.961Z,29.47
2018-03-27T09:31:59.606Z,28.77
2018-03-27T09:34:27.259Z,30.07
2018-03-27T09:36:54.848Z,30.30
2018-03-27T09:39:25.028Z,29.57
2018-03-27T09:41:54.495Z,30.90
2018-03-27T09:44:24.409Z,27.10
2018-03-27T09:46:54.682Z,35.03
2018-03-27T09:49:28.953Z,28.70
2018-03-27T09:51:58.534Z,31.77
2018-03-27T09:54:30.406Z,27.83
2018-03-27T09:59:52.617Z,34.20
2018-03-27T10:05:12.232Z,30.80
2018-03-27T10:07:39.859Z,33.27
2018-03-27T10:10:07.476Z,33.23
2018-03-27T10:12:35.361Z,24.27
2018-03-27T10:15:03.613Z,30.97
2018-03-27T10:17:31.220Z,34.13
2018-03-27T10:19:58.899Z,32.40
2018-03-27T10:22:26.506Z,32.57
2018-03-27T10:24:54.128Z,25.13
2018-03-27T10:27:21.861Z,23.57
2018-03-27T10:29:49.459Z,20.33
2018-03-27T10:32:17.084Z,26.93
2018-03-27T10:34:44.727Z,24.60
2018-03-27T10:37:12.408Z,21.97
2018-03-27T10:39:40.816Z,24.13
2018-03-27T10:42:08.471Z,21.60
2018-03-27T10:44:36.100Z,21.57
2018-03-27T10:47:03.726Z,20.97
2018-03-27T10:49:31.378Z,20.20
2018-03-27T10:51:59.008Z,17.97
2018-03-27T10:54:26.630Z,17.87
2018-03-27T10:56:54.293Z,20.60
2018-03-27T10:59:22.012Z,16.77
2018-03-27T11:01:49.745Z,20.43
2018-03-27T11:04:17.514Z,14.93
2018-03-27T11:06:45.204Z,13.77
2018-03-27T11:09:12.822Z,16.90
2018-03-27T11:11:40.509Z,15.93
2018-03-27T11:14:08.177Z,19.00
2018-03-27T11:16:35.823Z,18.07
2018-03-27T11:19:03.500Z,17.10
2018-03-27T11:21:31.134Z,19.13
2018-03-27T11:23:58.750Z,24.37
2018-03-27T11:26:26.469Z,23.07
2018-03-27T11:28:54.088Z,21.77
2018-03-27T11:31:21.736Z,20.43
2018-03-27T11:33:49.414Z,18.10
2018-03-27T11:36:17.040Z,20.13
2018-03-27T11:38:44.666Z,15.50
2018-03-27T11:41:12.349Z,18.40
2018-03-27T11:43:39.957Z,19.20
2018-03-27T11:46:07.559Z,15.13
2018-03-27T11:48:35.203Z,21.27
2018-03-27T11:51:03.666Z,21.57
2018-03-27T11:53:31.269Z,16.30
2018-03-27T11:55:58.921Z,20.93
2018-03-27T11:58:26.558Z,19.20
2018-03-27T12:00:54.187Z,16.63
2018-03-27T12:03:22.098Z,17.90
2018-03-27T12:05:49.742Z,15.53
2018-03-27T12:08:17.358Z,15.63
2018-03-27T12:10:45.122Z,14.33
2018-03-27T12:13:12.738Z,13.37
2018-03-27T12:15:40.359Z,14.23
2018-03-27T12:18:08.014Z,13.73
2018-03-27T12:20:35.640Z,14.67
2018-03-27T12:23:03.941Z,18.27
2018-03-27T12:25:31.626Z,14.30
2018-03-27T12:27:59.263Z,13.60
2018-03-27T12:30:26.931Z,13.80
2018-03-27T12:32:54.646Z,13.70
2018-03-27T12:35:22.267Z,13.77
2018-03-27T12:37:49.851Z,13.70
2018-03-27T12:40:17.494Z,13.53
2018-03-27T12:42:45.183Z,11.47
2018-03-27T12:45:12.940Z,14.03
2018-03-27T12:47:40.618Z,17.57
2018-03-27T12:50:08.224Z,14.20
2018-03-27T12:52:35.820Z,14.37
2018-03-27T12:55:03.526Z,15.73
2018-03-27T12:57:31.137Z,17.17
2018-03-27T12:59:58.814Z,13.97
2018-03-27T13:02:26.604Z,14.67
2018-03-27T13:04:54.448Z,14.73
2018-03-27T13:07:22.062Z,16.93
2018-03-27T13:09:50.071Z,16.77
2018-03-27T13:12:18.383Z,19.37
2018-03-27T13:14:46.012Z,18.13
2018-03-27T13:17:13.872Z,20.67
2018-03-27T13:19:41.524Z,20.07
2018-03-27T13:22:09.192Z,23.60
2018-03-27T13:24:36.866Z,17.03
2018-03-27T13:27:04.543Z,17.90
2018-03-27T13:29:32.943Z,17.03
2018-03-27T13:32:00.574Z,16.23
2018-03-27T13:34:31.111Z,16.20
2018-03-27T13:36:58.785Z,17.47
2018-03-27T13:39:26.451Z,17.67
2018-03-27T13:41:54.038Z,17.70
2018-03-27T13:44:21.645Z,20.30
2018-03-27T13:46:49.408Z,19.83
2018-03-27T13:49:17.020Z,16.87
2018-03-27T13:51:43.902Z,16.47
2018-03-27T13:54:11.565Z,15.47
2018-03-27T13:56:39.180Z,23.37
2018-03-27T13:59:06.794Z,17.60
2018-03-27T14:01:34.523Z,19.37
2018-03-27T14:04:02.119Z,16.10
2018-03-27T14:06:29.852Z,20.27
2018-03-27T14:08:57.494Z,22.70
2018-03-27T14:11:25.075Z,17.67
2018-03-27T14:13:52.689Z,16.23
2018-03-27T14:16:20.337Z,16.57
2018-03-27T14:18:47.964Z,17.37
2018-03-27T14:21:15.633Z,18.93
2018-03-27T14:23:43.343Z,18.47
2018-03-27T14:26:10.940Z,17.90
2018-03-27T14:28:38.556Z,20.73
2018-03-27T14:31:06.420Z,18.80
2018-03-27T14:33:34.102Z,19.30
2018-03-27T14:36:01.719Z,19.63
2018-03-27T14:38:29.403Z,21.53
2018-03-27T14:40:57.105Z,20.23
2018-03-27T14:43:25.338Z,24.73
2018-03-27T14:45:53.324Z,21.27
2018-03-27T14:48:20.984Z,17.87
2018-03-27T14:50:48.649Z,21.53
2018-03-27T14:53:16.378Z,21.87
2018-03-27T14:55:44.137Z,19.43
2018-03-27T14:58:11.744Z,18.07
2018-03-27T15:00:39.379Z,20.20
2018-03-27T15:03:06.989Z,19.17
2018-03-27T15:05:34.602Z,19.87
2018-03-27T15:08:02.313Z,22.47
2018-03-27T15:10:30.007Z,28.60
2018-03-27T15:12:57.597Z,25.43
2018-03-27T15:15:25.315Z,24.20
2018-03-27T15:17:52.914Z,22.80
2018-03-27T15:20:20.575Z,22.93
2018-03-27T15:22:48.260Z,31.20
2018-03-27T15:25:15.941Z,25.50
2018-03-27T15:27:43.537Z,30.17
2018-03-27T15:30:11.483Z,28.07
2018-03-27T15:32:39.099Z,33.63
2018-03-27T15:35:06.715Z,30.33
2018-03-27T15:37:34.508Z,38.60
2018-03-27T15:40:02.158Z,48.10
2018-03-27T15:42:29.743Z,37.13
2018-03-27T15:44:57.910Z,27.10
2018-03-27T15:47:25.499Z,22.40
2018-03-27T15:49:53.084Z,18.10
2018-03-27T15:52:20.721Z,18.73
2018-03-27T15:54:48.347Z,14.50
2018-03-27T15:57:15.948Z,12.40
2018-03-27T15:59:43.656Z,14.93
2018-03-27T16:02:11.279Z,18.10
2018-03-27T16:04:38.938Z,19.20
2018-03-27T16:07:06.785Z,19.63
2018-03-27T16:09:34.715Z,18.77
2018-03-27T16:12:02.396Z,22.23
2018-03-27T16:14:30.168Z,21.03
2018-03-27T16:16:57.988Z,23.20
2018-03-27T16:19:25.722Z,23.37
2018-03-27T16:21:53.646Z,20.90
2018-03-27T16:24:22.252Z,20.97
2018-03-27T16:26:50.303Z,24.57
2018-03-27T16:29:18.186Z,19.03
2018-03-27T16:31:46.610Z,16.20
2018-03-27T16:34:14.365Z,10.37
2018-03-27T16:36:42.213Z,11.67
2018-03-27T16:39:10.102Z,12.73
2018-03-27T16:41:38.015Z,13.93
2018-03-27T16:44:05.960Z,19.90
2018-03-27T16:46:33.845Z,23.27
2018-03-27T16:49:01.798Z,24.80
2018-03-27T16:51:29.734Z,28.40
2018-03-27T16:53:57.619Z,29.30
2018-03-27T16:56:25.504Z,32.00
2018-03-27T16:58:53.483Z,41.60
2018-03-27T17:01:21.348Z,40.93
2018-03-27T17:03:49.230Z,37.67
2018-03-27T17:06:17.181Z,41.77
2018-03-27T17:08:45.084Z,46.33
2018-03-27T17:13:50.286Z,28.00
2018-03-27T17:16:18.155Z,15.57
2018-03-27T17:18:45.978Z,10.37
2018-03-27T17:21:13.894Z,13.07
2018-03-27T17:23:41.775Z,11.73
2018-03-27T17:26:09.662Z,15.50
2018-03-27T17:28:42.816Z,19.43
2018-03-27T17:31:10.698Z,14.43
2018-03-27T17:33:38.574Z,15.50
2018-03-27T17:36:06.529Z,19.47
2018-03-27T17:38:34.413Z,17.07
2018-03-27T17:41:02.283Z,22.23
2018-03-27T17:43:31.481Z,22.60
2018-03-27T17:45:59.478Z,19.27
2018-03-27T17:51:10.802Z,22.07
2018-03-27T17:53:38.976Z,22.27
2018-03-27T17:56:06.905Z,20.53
2018-03-27T17:58:34.931Z,22.00
2018-03-27T18:01:02.928Z,25.07
2018-03-27T18:03:31.930Z,26.67
2018-03-27T18:05:59.829Z,23.90
2018-03-27T18:08:27.760Z,21.70
2018-03-27T18:10:55.644Z,25.53
2018-03-27T18:13:24.217Z,29.17
2018-03-27T18:15:52.399Z,31.90
2018-03-27T18:18:20.267Z,31.50
2018-03-27T18:20:49.142Z,31.97
2018-03-27T18:23:17.096Z,32.40
2018-03-27T18:25:45.908Z,29.23
2018-03-27T18:28:13.773Z,27.23
2018-03-27T18:30:41.729Z,29.73
2018-03-27T18:33:09.711Z,23.70
2018-03-27T18:35:37.603Z,26.20
2018-03-27T18:38:05.585Z,29.30
2018-03-27T18:40:33.470Z,27.53
2018-03-27T18:43:01.349Z,24.77
2018-03-27T18:45:29.280Z,29.73
2018-03-27T18:47:57.168Z,24.20
2018-03-27T18:50:25.118Z,26.57
2018-03-27T18:52:53.052Z,24.63
2018-03-27T18:55:20.937Z,29.10
2018-03-27T18:57:48.816Z,26.67
2018-03-27T19:00:16.818Z,26.37
2018-03-27T19:02:44.710Z,26.17
2018-03-27T19:05:12.621Z,28.57
2018-03-27T19:07:41.697Z,28.57
2018-03-27T19:10:09.574Z,32.70
2018-03-27T19:12:37.448Z,34.03
2018-03-27T19:15:05.403Z,35.60
2018-03-27T19:17:33.387Z,34.43
2018-03-27T19:20:01.354Z,29.73
2018-03-27T19:22:29.375Z,29.17
2018-03-27T19:24:57.256Z,28.43
2018-03-27T19:27:25.325Z,37.17
2018-03-27T19:29:53.271Z,33.83
2018-03-27T19:32:21.145Z,31.20
2018-03-27T19:34:49.012Z,28.03
2018-03-27T19:37:17.007Z,27.03
2018-03-27T19:39:44.890Z,31.37
2018-03-27T19:42:12.765Z,24.33
2018-03-27T19:44:40.899Z,23.57
2018-03-27T19:47:08.790Z,21.53
2018-03-27T19:49:37.844Z,22.87
2018-03-27T19:52:09.562Z,24.27
2018-03-27T19:54:37.484Z,19.83
2018-03-27T19:57:05.368Z,21.47
2018-03-27T19:59:33.535Z,23.10
2018-03-27T20:02:01.495Z,21.83
2018-03-27T20:04:29.369Z,12.40
2018-03-27T20:06:57.901Z,13.60
2018-03-27T20:09:25.808Z,15.27
2018-03-27T20:11:53.675Z,12.63
2018-03-27T20:14:21.663Z,12.00
2018-03-27T20:16:49.533Z,12.10
2018-03-27T20:19:17.454Z,13.37
2018-03-27T20:21:45.367Z,12.57
2018-03-27T20:24:13.237Z,11.63
2018-03-27T20:26:41.100Z,12.00
2018-03-27T20:29:09.036Z,13.63
2018-03-27T20:31:36.908Z,13.33
2018-03-27T20:34:04.848Z,14.57
2018-03-27T20:36:33.214Z,22.10
2018-03-27T20:39:01.080Z,17.67
2018-03-27T20:41:29.001Z,15.53
2018-03-27T20:43:56.917Z,18.30
2018-03-27T20:46:24.780Z,16.17
2018-03-27T20:48:53.590Z,15.40
2018-03-27T20:51:21.573Z,15.43
2018-03-27T20:53:49.415Z,22.83
2018-03-27T20:56:17.278Z,26.50
2018-03-27T20:58:45.182Z,28.20
2018-03-27T21:01:13.015Z,26.30
2018-03-27T21:03:40.857Z,29.87
2018-03-27T21:06:08.785Z,30.17
2018-03-27T21:08:36.615Z,29.00
2018-03-27T21:11:04.489Z,23.80
2018-03-27T21:13:32.754Z,17.67
2018-03-27T21:16:00.584Z,18.57
2018-03-27T21:18:28.414Z,17.50
2018-03-27T21:20:56.371Z,18.13
2018-03-27T21:23:24.174Z,19.70
2018-03-27T21:25:51.860Z,16.20
2018-03-27T21:28:19.641Z,17.07
2018-03-27T21:30:47.199Z,18.73
2018-03-27T21:33:14.801Z,19.10
2018-03-27T21:35:42.411Z,17.90
2018-03-27T21:38:09.965Z,20.27
2018-03-27T21:40:37.509Z,18.97
2018-03-27T21:43:05.428Z,20.13
2018-03-27T21:45:33.016Z,17.37
2018-03-27T21:48:00.568Z,17.97
2018-03-27T21:50:28.404Z,16.97
2018-03-27T21:52:55.979Z,17.90
2018-03-27T21:55:23.542Z,19.00
2018-03-27T21:57:51.205Z,18.10
2018-03-27T22:00:18.850Z,21.30
2018-03-27T22:02:46.417Z,20.70
2018-03-27T22:05:14.020Z,15.90
2018-03-27T22:07:41.582Z,17.40
2018-03-27T22:10:09.138Z,19.73
2018-03-27T22:12:36.801Z,18.30
2018-03-27T22:15:04.442Z,16.87
2018-03-27T22:17:32.000Z,19.07
2018-03-27T22:20:00.544Z,17.83
2018-03-27T22:22:28.339Z,18.63
2018-03-27T22:24:55.884Z,20.07
2018-03-27T22:27:23.499Z,18.67
2018-03-27T22:29:51.339Z,19.77
2018-03-27T22:32:18.889Z,20.90
2018-03-27T22:34:46.706Z,20.70
2018-03-27T22:37:14.269Z,18.70
2018-03-27T22:39:41.831Z,19.50
2018-03-27T22:42:09.460Z,21.73
2018-03-27T22:44:37.015Z,19.87
2018-03-27T22:47:04.639Z,20.47
2018-03-27T22:49:32.239Z,18.03
2018-03-27T22:52:00.404Z,19.47
2018-03-27T22:54:28.975Z,17.50
2018-03-27T22:56:57.006Z,23.80
2018-03-27T22:59:24.640Z,19.27
2018-03-27T23:01:52.198Z,18.67
2018-03-27T23:04:19.841Z,18.47
2018-03-27T23:06:47.462Z,20.83
2018-03-27T23:09:15.020Z,20.33
2018-03-27T23:11:42.637Z,20.70
2018-03-27T23:14:10.198Z,24.53
2018-03-27T23:16:37.803Z,28.60
2018-03-27T23:19:05.508Z,29.13
2018-03-27T23:21:33.065Z,26.73
2018-03-27T23:24:00.781Z,30.53
2018-03-27T23:26:29.256Z,28.80
2018-03-27T23:28:56.873Z,30.60
2018-03-27T23:31:24.437Z,30.20
2018-03-27T23:33:53.173Z,28.10
2018-03-27T23:36:20.749Z,30.63
2018-03-27T23:38:48.298Z,27.53
2018-03-27T23:41:15.937Z,28.50
2018-03-27T23:43:43.490Z,24.43
2018-03-27T23:46:14.752Z,24.17
2018-03-27T23:48:43.830Z,26.83
2018-03-27T23:51:11.399Z,24.50
2018-03-27T23:53:39.026Z,26.00
2018-03-27T23:56:06.647Z,23.23
2018-03-27T23:58:34.201Z,24.07
